sensor_id;sensor_type;location;lat;lon;timestamp;P1;durP1;ratioP1;P2;durP2;ratioP2
13267;SDS011;6702;47.068;15.458;2022-12-29T00:00:59;14.50;;;11.60;;
13267;SDS011;6702;47.068;15.458;2022-12-29T00:04:03;14.30;;;11.57;;
13267;SDS011;6702;47.068;15.458;2022-12-29T00:07:16;12.20;;;9.07;;
13267;SDS011;6702;47.068;15.458;2022-12-29T00:10:19;10.83;;;8.10;;
13267;SDS011;6702;47.068;15.458;2022-12-29T00:13:22;9.53;;;8.53;;
13267;SDS011;6702;47.068;15.458;2022-12-29T00:16:43;11.43;;;9.63;;
13267;SDS011;6702;47.068;15.458;2022-12-29T00:19:47;12.57;;;9.67;;
13267;SDS011;6702;47.068;15.458;2022-12-29T00:23:09;11.03;;;9.43;;
13267;SDS011;6702;47.068;15.458;2022-12-29T00:26:30;11.03;;;9.73;;
13267;SDS011;6702;47.068;15.458;2022-12-29T00:29:51;10.97;;;9.20;;
13267;SDS011;6702;47.068;15.458;2022-12-29T00:33:12;12.87;;;9.23;;
13267;SDS011;6702;47.068;15.458;2022-12-29T00:36:37;11.67;;;9.33;;
13267;SDS011;6702;47.068;15.458;2022-12-29T00:39:44;9.23;;;8.33;;
13267;SDS011;6702;47.068;15.458;2022-12-29T00:43:05;13.03;;;9.10;;
13267;SDS011;6702;47.068;15.458;2022-12-29T00:46:25;13.40;;;9.40;;
13267;SDS011;6702;47.068;15.458;2022-12-29T00:49:29;12.87;;;9.53;;
13267;SDS011;6702;47.068;15.458;2022-12-29T00:52:32;11.50;;;10.30;;
13267;SDS011;6702;47.068;15.458;2022-12-29T00:55:37;12.20;;;10.07;;
13267;SDS011;6702;47.068;15.458;2022-12-29T00:58:40;11.53;;;10.43;;
13267;SDS011;6702;47.068;15.458;2022-12-29T01:01:43;19.67;;;11.00;;
13267;SDS011;6702;47.068;15.458;2022-12-29T01:04:47;20.33;;;12.20;;
13267;SDS011;6702;47.068;15.458;2022-12-29T01:07:50;17.10;;;13.33;;
13267;SDS011;6702;47.068;15.458;2022-12-29T01:10:59;13.13;;;11.03;;
13267;SDS011;6702;47.068;15.458;2022-12-29T01:14:01;14.90;;;11.30;;
13267;SDS011;6702;47.068;15.458;2022-12-29T01:17:05;12.43;;;9.13;;
13267;SDS011;6702;47.068;15.458;2022-12-29T01:20:08;13.57;;;9.47;;
13267;SDS011;6702;47.068;15.458;2022-12-29T01:23:13;13.93;;;10.50;;
13267;SDS011;6702;47.068;15.458;2022-12-29T01:26:18;26.23;;;23.43;;
13267;SDS011;6702;47.068;15.458;2022-12-29T01:29:21;22.73;;;20.40;;
13267;SDS011;6702;47.068;15.458;2022-12-29T01:32:25;17.23;;;15.07;;
13267;SDS011;6702;47.068;15.458;2022-12-29T01:35:28;19.40;;;12.83;;
13267;SDS011;6702;47.068;15.458;2022-12-29T01:38:31;15.97;;;12.50;;
13267;SDS011;6702;47.068;15.458;2022-12-29T01:41:36;13.17;;;11.87;;
13267;SDS011;6702;47.068;15.458;2022-12-29T01:44:53;13.17;;;11.27;;
13267;SDS011;6702;47.068;15.458;2022-12-29T01:47:58;13.17;;;11.00;;
13267;SDS011;6702;47.068;15.458;2022-12-29T01:51:06;15.00;;;10.97;;
13267;SDS011;6702;47.068;15.458;2022-12-29T01:54:11;13.13;;;10.53;;
13267;SDS011;6702;47.068;15.458;2022-12-29T01:57:21;11.10;;;9.57;;
13267;SDS011;6702;47.068;15.458;2022-12-29T02:00:28;14.07;;;10.07;;
13267;SDS011;6702;47.068;15.458;2022-12-29T02:03:31;18.33;;;11.13;;
13267;SDS011;6702;47.068;15.458;2022-12-29T02:06:36;11.80;;;9.60;;
13267;SDS011;6702;47.068;15.458;2022-12-29T02:09:45;15.33;;;11.17;;
13267;SDS011;6702;47.068;15.458;2022-12-29T02:12:51;13.43;;;10.50;;
13267;SDS011;6702;47.068;15.458;2022-12-29T02:15:57;13.93;;;10.90;;
13267;SDS011;6702;47.068;15.458;2022-12-29T02:19:19;12.33;;;9.90;;
13267;SDS011;6702;47.068;15.458;2022-12-29T02:22:55;15.00;;;9.50;;
13267;SDS011;6702;47.068;15.458;2022-12-29T02:26:18;12.77;;;9.73;;
13267;SDS011;6702;47.068;15.458;2022-12-29T02:29:50;14.60;;;9.17;;
13267;SDS011;6702;47.068;15.458;2022-12-29T02:33:08;9.63;;;8.70;;
13267;SDS011;6702;47.068;15.458;2022-12-29T02:36:25;11.53;;;9.20;;
13267;SDS011;6702;47.068;15.458;2022-12-29T02:39:36;10.97;;;8.93;;
13267;SDS011;6702;47.068;15.458;2022-12-29T02:42:46;12.70;;;9.93;;
13267;SDS011;6702;47.068;15.458;2022-12-29T02:45:53;10.50;;;8.70;;
13267;SDS011;6702;47.068;15.458;2022-12-29T02:49:01;11.93;;;8.83;;
13267;SDS011;6702;47.068;15.458;2022-12-29T02:52:12;10.13;;;8.53;;
13267;SDS011;6702;47.068;15.458;2022-12-29T02:55:19;11.23;;;9.37;;
13267;SDS011;6702;47.068;15.458;2022-12-29T02:58:22;9.93;;;8.50;;
13267;SDS011;6702;47.068;15.458;2022-12-29T03:01:29;12.33;;;10.00;;
13267;SDS011;6702;47.068;15.458;2022-12-29T03:08:39;14.40;;;11.50;;
13267;SDS011;6702;47.068;15.458;2022-12-29T03:11:50;17.80;;;12.53;;
13267;SDS011;6702;47.068;15.458;2022-12-29T03:15:10;16.70;;;12.80;;
13267;SDS011;6702;47.068;15.458;2022-12-29T03:18:41;14.67;;;12.40;;
13267;SDS011;6702;47.068;15.458;2022-12-29T03:21:54;11.90;;;10.70;;
13267;SDS011;6702;47.068;15.458;2022-12-29T03:25:19;13.13;;;9.10;;
13267;SDS011;6702;47.068;15.458;2022-12-29T03:28:27;15.93;;;10.10;;
13267;SDS011;6702;47.068;15.458;2022-12-29T03:31:35;14.10;;;10.93;;
13267;SDS011;6702;47.068;15.458;2022-12-29T03:34:40;12.47;;;10.60;;
13267;SDS011;6702;47.068;15.458;2022-12-29T03:37:48;16.23;;;11.87;;
13267;SDS011;6702;47.068;15.458;2022-12-29T03:40:55;17.30;;;12.60;;
13267;SDS011;6702;47.068;15.458;2022-12-29T03:44:01;12.77;;;11.30;;
13267;SDS011;6702;47.068;15.458;2022-12-29T03:47:05;12.10;;;10.80;;
13267;SDS011;6702;47.068;15.458;2022-12-29T03:50:11;13.07;;;10.00;;
13267;SDS011;6702;47.068;15.458;2022-12-29T03:53:16;12.00;;;10.70;;
13267;SDS011;6702;47.068;15.458;2022-12-29T03:56:19;13.90;;;9.70;;
13267;SDS011;6702;47.068;15.458;2022-12-29T03:59:22;13.20;;;11.20;;
13267;SDS011;6702;47.068;15.458;2022-12-29T04:02:26;16.70;;;12.13;;
13267;SDS011;6702;47.068;15.458;2022-12-29T04:05:29;12.57;;;10.20;;
13267;SDS011;6702;47.068;15.458;2022-12-29T04:08:34;16.10;;;11.70;;
13267;SDS011;6702;47.068;15.458;2022-12-29T04:11:37;13.47;;;9.90;;
13267;SDS011;6702;47.068;15.458;2022-12-29T04:14:40;13.80;;;12.10;;
13267;SDS011;6702;47.068;15.458;2022-12-29T04:17:44;14.23;;;10.27;;
13267;SDS011;6702;47.068;15.458;2022-12-29T04:20:47;12.50;;;10.23;;
13267;SDS011;6702;47.068;15.458;2022-12-29T04:24:05;17.80;;;11.57;;
13267;SDS011;6702;47.068;15.458;2022-12-29T04:27:09;12.70;;;11.07;;
13267;SDS011;6702;47.068;15.458;2022-12-29T04:30:12;12.30;;;9.23;;
13267;SDS011;6702;47.068;15.458;2022-12-29T04:33:15;10.43;;;9.03;;
13267;SDS011;6702;47.068;15.458;2022-12-29T04:36:19;10.97;;;9.17;;
13267;SDS011;6702;47.068;15.458;2022-12-29T04:39:31;10.03;;;9.03;;
13267;SDS011;6702;47.068;15.458;2022-12-29T04:42:35;11.53;;;8.40;;
13267;SDS011;6702;47.068;15.458;2022-12-29T04:45:39;10.00;;;8.43;;
13267;SDS011;6702;47.068;15.458;2022-12-29T04:48:45;13.23;;;9.20;;
13267;SDS011;6702;47.068;15.458;2022-12-29T04:51:49;11.80;;;9.10;;
13267;SDS011;6702;47.068;15.458;2022-12-29T04:54:53;11.10;;;8.70;;
13267;SDS011;6702;47.068;15.458;2022-12-29T04:57:56;21.23;;;14.00;;
13267;SDS011;6702;47.068;15.458;2022-12-29T05:01:00;13.40;;;10.70;;
13267;SDS011;6702;47.068;15.458;2022-12-29T05:04:03;13.53;;;11.03;;
13267;SDS011;6702;47.068;15.458;2022-12-29T05:07:06;11.20;;;9.90;;
13267;SDS011;6702;47.068;15.458;2022-12-29T05:10:11;12.30;;;10.90;;
13267;SDS011;6702;47.068;15.458;2022-12-29T05:13:15;11.10;;;9.40;;
13267;SDS011;6702;47.068;15.458;2022-12-29T05:16:18;11.80;;;10.53;;
13267;SDS011;6702;47.068;15.458;2022-12-29T05:19:22;11.33;;;9.90;;
13267;SDS011;6702;47.068;15.458;2022-12-29T05:22:25;17.97;;;12.07;;
13267;SDS011;6702;47.068;15.458;2022-12-29T05:25:30;14.03;;;10.90;;
13267;SDS011;6702;47.068;15.458;2022-12-29T05:28:33;11.50;;;10.17;;
13267;SDS011;6702;47.068;15.458;2022-12-29T05:31:37;10.93;;;9.80;;
13267;SDS011;6702;47.068;15.458;2022-12-29T05:34:40;18.40;;;10.20;;
13267;SDS011;6702;47.068;15.458;2022-12-29T05:37:43;8.90;;;8.00;;
13267;SDS011;6702;47.068;15.458;2022-12-29T05:40:48;11.57;;;8.53;;
13267;SDS011;6702;47.068;15.458;2022-12-29T05:43:51;13.17;;;8.37;;
13267;SDS011;6702;47.068;15.458;2022-12-29T05:46:54;10.23;;;9.13;;
13267;SDS011;6702;47.068;15.458;2022-12-29T05:49:57;13.20;;;7.13;;
13267;SDS011;6702;47.068;15.458;2022-12-29T05:53:00;8.53;;;7.20;;
13267;SDS011;6702;47.068;15.458;2022-12-29T05:56:05;12.17;;;8.10;;
13267;SDS011;6702;47.068;15.458;2022-12-29T05:59:09;13.70;;;6.83;;
13267;SDS011;6702;47.068;15.458;2022-12-29T06:02:12;8.73;;;7.83;;
13267;SDS011;6702;47.068;15.458;2022-12-29T06:05:16;10.03;;;7.97;;
13267;SDS011;6702;47.068;15.458;2022-12-29T06:08:19;10.60;;;8.30;;
13267;SDS011;6702;47.068;15.458;2022-12-29T06:11:24;10.27;;;8.50;;
13267;SDS011;6702;47.068;15.458;2022-12-29T06:14:27;10.90;;;9.77;;
13267;SDS011;6702;47.068;15.458;2022-12-29T06:17:30;9.83;;;8.67;;
13267;SDS011;6702;47.068;15.458;2022-12-29T06:20:34;13.00;;;9.33;;
13267;SDS011;6702;47.068;15.458;2022-12-29T06:23:37;19.67;;;11.17;;
13267;SDS011;6702;47.068;15.458;2022-12-29T06:26:41;11.00;;;9.60;;
13267;SDS011;6702;47.068;15.458;2022-12-29T06:29:45;10.90;;;8.67;;
13267;SDS011;6702;47.068;15.458;2022-12-29T06:32:48;12.27;;;10.00;;
13267;SDS011;6702;47.068;15.458;2022-12-29T06:35:51;14.00;;;9.83;;
13267;SDS011;6702;47.068;15.458;2022-12-29T06:38:54;12.33;;;10.00;;
13267;SDS011;6702;47.068;15.458;2022-12-29T06:41:59;11.40;;;9.20;;
13267;SDS011;6702;47.068;15.458;2022-12-29T06:45:03;13.63;;;11.53;;
13267;SDS011;6702;47.068;15.458;2022-12-29T06:48:07;12.90;;;10.83;;
13267;SDS011;6702;47.068;15.458;2022-12-29T06:51:10;11.80;;;10.70;;
13267;SDS011;6702;47.068;15.458;2022-12-29T06:54:13;18.00;;;13.40;;
13267;SDS011;6702;47.068;15.458;2022-12-29T06:57:18;15.67;;;12.33;;
13267;SDS011;6702;47.068;15.458;2022-12-29T07:00:22;14.97;;;10.93;;
13267;SDS011;6702;47.068;15.458;2022-12-29T07:03:25;13.33;;;11.93;;
13267;SDS011;6702;47.068;15.458;2022-12-29T07:06:28;11.80;;;10.60;;
13267;SDS011;6702;47.068;15.458;2022-12-29T07:09:32;12.97;;;11.30;;
13267;SDS011;6702;47.068;15.458;2022-12-29T07:12:36;13.20;;;11.50;;
13267;SDS011;6702;47.068;15.458;2022-12-29T07:15:40;12.43;;;10.53;;
13267;SDS011;6702;47.068;15.458;2022-12-29T07:18:43;17.20;;;11.27;;
13267;SDS011;6702;47.068;15.458;2022-12-29T07:21:46;15.20;;;12.03;;
13267;SDS011;6702;47.068;15.458;2022-12-29T07:24:49;11.90;;;10.50;;
13267;SDS011;6702;47.068;15.458;2022-12-29T07:27:54;17.50;;;13.00;;
13267;SDS011;6702;47.068;15.458;2022-12-29T07:30:57;12.13;;;10.97;;
13267;SDS011;6702;47.068;15.458;2022-12-29T07:34:00;11.57;;;10.47;;
13267;SDS011;6702;47.068;15.458;2022-12-29T07:37:03;17.63;;;12.27;;
13267;SDS011;6702;47.068;15.458;2022-12-29T07:40:08;13.43;;;12.03;;
13267;SDS011;6702;47.068;15.458;2022-12-29T07:43:13;15.80;;;13.00;;
13267;SDS011;6702;47.068;15.458;2022-12-29T07:46:16;15.03;;;11.70;;
13267;SDS011;6702;47.068;15.458;2022-12-29T07:49:39;15.77;;;12.80;;
13267;SDS011;6702;47.068;15.458;2022-12-29T07:52:43;15.77;;;13.10;;
13267;SDS011;6702;47.068;15.458;2022-12-29T07:55:48;18.27;;;12.20;;
13267;SDS011;6702;47.068;15.458;2022-12-29T07:58:52;13.07;;;11.63;;
13267;SDS011;6702;47.068;15.458;2022-12-29T08:01:55;16.57;;;12.27;;
13267;SDS011;6702;47.068;15.458;2022-12-29T08:04:59;18.33;;;13.80;;
13267;SDS011;6702;47.068;15.458;2022-12-29T08:08:02;13.63;;;12.20;;
13267;SDS011;6702;47.068;15.458;2022-12-29T08:11:06;15.53;;;11.70;;
13267;SDS011;6702;47.068;15.458;2022-12-29T08:14:10;19.50;;;12.93;;
13267;SDS011;6702;47.068;15.458;2022-12-29T08:17:13;15.17;;;12.93;;
13267;SDS011;6702;47.068;15.458;2022-12-29T08:20:17;21.20;;;13.50;;
13267;SDS011;6702;47.068;15.458;2022-12-29T08:23:20;16.90;;;13.60;;
13267;SDS011;6702;47.068;15.458;2022-12-29T08:26:23;14.33;;;12.83;;
13267;SDS011;6702;47.068;15.458;2022-12-29T08:29:28;19.97;;;14.43;;
13267;SDS011;6702;47.068;15.458;2022-12-29T08:32:31;17.33;;;12.57;;
13267;SDS011;6702;47.068;15.458;2022-12-29T08:35:34;14.73;;;11.80;;
13267;SDS011;6702;47.068;15.458;2022-12-29T08:38:38;16.13;;;13.33;;
13267;SDS011;6702;47.068;15.458;2022-12-29T08:41:41;15.80;;;11.90;;
13267;SDS011;6702;47.068;15.458;2022-12-29T08:44:45;13.33;;;11.90;;
13267;SDS011;6702;47.068;15.458;2022-12-29T08:47:48;16.80;;;13.60;;
13267;SDS011;6702;47.068;15.458;2022-12-29T08:50:52;16.87;;;13.40;;
13267;SDS011;6702;47.068;15.458;2022-12-29T08:53:55;17.27;;;15.07;;
13267;SDS011;6702;47.068;15.458;2022-12-29T08:56:58;18.63;;;16.63;;
13267;SDS011;6702;47.068;15.458;2022-12-29T09:00:03;17.87;;;15.80;;
13267;SDS011;6702;47.068;15.458;2022-12-29T09:03:07;19.10;;;13.23;;
13267;SDS011;6702;47.068;15.458;2022-12-29T09:06:11;17.50;;;13.87;;
13267;SDS011;6702;47.068;15.458;2022-12-29T09:09:14;16.30;;;13.53;;
13267;SDS011;6702;47.068;15.458;2022-12-29T09:12:18;14.13;;;12.67;;
13267;SDS011;6702;47.068;15.458;2022-12-29T09:15:22;15.30;;;12.70;;
13267;SDS011;6702;47.068;15.458;2022-12-29T09:18:26;14.20;;;12.70;;
13267;SDS011;6702;47.068;15.458;2022-12-29T09:21:29;17.83;;;13.10;;
13267;SDS011;6702;47.068;15.458;2022-12-29T09:24:32;18.40;;;13.13;;
13267;SDS011;6702;47.068;15.458;2022-12-29T09:27:36;15.13;;;13.60;;
13267;SDS011;6702;47.068;15.458;2022-12-29T09:30:41;16.20;;;13.37;;
13267;SDS011;6702;47.068;15.458;2022-12-29T09:33:44;23.30;;;13.87;;
13267;SDS011;6702;47.068;15.458;2022-12-29T09:36:48;15.87;;;13.10;;
13267;SDS011;6702;47.068;15.458;2022-12-29T09:39:51;22.00;;;15.03;;
13267;SDS011;6702;47.068;15.458;2022-12-29T09:46:27;22.23;;;16.67;;
13267;SDS011;6702;47.068;15.458;2022-12-29T09:49:33;22.53;;;16.40;;
13267;SDS011;6702;47.068;15.458;2022-12-29T09:52:44;19.10;;;14.63;;
13267;SDS011;6702;47.068;15.458;2022-12-29T09:55:53;21.20;;;15.27;;
13267;SDS011;6702;47.068;15.458;2022-12-29T09:58:59;19.23;;;15.40;;
13267;SDS011;6702;47.068;15.458;2022-12-29T10:02:15;18.93;;;16.00;;
13267;SDS011;6702;47.068;15.458;2022-12-29T10:05:35;19.63;;;12.73;;
13267;SDS011;6702;47.068;15.458;2022-12-29T10:08:44;12.37;;;10.60;;
13267;SDS011;6702;47.068;15.458;2022-12-29T10:11:58;25.23;;;15.10;;
13267;SDS011;6702;47.068;15.458;2022-12-29T10:15:10;16.07;;;13.17;;
13267;SDS011;6702;47.068;15.458;2022-12-29T10:18:27;12.13;;;10.73;;
13267;SDS011;6702;47.068;15.458;2022-12-29T10:21:46;20.67;;;15.07;;
13267;SDS011;6702;47.068;15.458;2022-12-29T10:25:00;20.53;;;13.37;;
13267;SDS011;6702;47.068;15.458;2022-12-29T10:28:15;20.03;;;15.00;;
13267;SDS011;6702;47.068;15.458;2022-12-29T10:31:22;19.20;;;14.53;;
13267;SDS011;6702;47.068;15.458;2022-12-29T10:34:29;16.40;;;14.27;;
13267;SDS011;6702;47.068;15.458;2022-12-29T10:37:38;20.50;;;15.33;;
13267;SDS011;6702;47.068;15.458;2022-12-29T10:40:46;22.03;;;16.30;;
13267;SDS011;6702;47.068;15.458;2022-12-29T10:43:54;22.17;;;18.90;;
13267;SDS011;6702;47.068;15.458;2022-12-29T10:47:00;18.43;;;16.10;;
13267;SDS011;6702;47.068;15.458;2022-12-29T10:50:12;17.30;;;15.07;;
13267;SDS011;6702;47.068;15.458;2022-12-29T10:53:17;18.23;;;15.40;;
13267;SDS011;6702;47.068;15.458;2022-12-29T10:56:28;20.23;;;15.80;;
13267;SDS011;6702;47.068;15.458;2022-12-29T10:59:35;26.40;;;16.43;;
13267;SDS011;6702;47.068;15.458;2022-12-29T11:02:45;18.27;;;15.93;;
13267;SDS011;6702;47.068;15.458;2022-12-29T11:06:19;17.00;;;15.20;;
13267;SDS011;6702;47.068;15.458;2022-12-29T11:09:28;18.50;;;15.43;;
13267;SDS011;6702;47.068;15.458;2022-12-29T11:16:13;16.00;;;14.20;;
13267;SDS011;6702;47.068;15.458;2022-12-29T11:19:19;20.30;;;15.07;;
13267;SDS011;6702;47.068;15.458;2022-12-29T11:22:27;19.13;;;15.43;;
13267;SDS011;6702;47.068;15.458;2022-12-29T11:25:31;19.67;;;17.60;;
13267;SDS011;6702;47.068;15.458;2022-12-29T11:28:34;16.20;;;14.10;;
13267;SDS011;6702;47.068;15.458;2022-12-29T11:31:41;17.90;;;14.47;;
13267;SDS011;6702;47.068;15.458;2022-12-29T11:34:46;17.43;;;14.07;;
13267;SDS011;6702;47.068;15.458;2022-12-29T11:37:53;16.67;;;13.87;;
13267;SDS011;6702;47.068;15.458;2022-12-29T11:40:59;16.50;;;12.50;;
13267;SDS011;6702;47.068;15.458;2022-12-29T11:44:04;15.13;;;13.63;;
13267;SDS011;6702;47.068;15.458;2022-12-29T11:47:08;18.00;;;13.50;;
13267;SDS011;6702;47.068;15.458;2022-12-29T11:50:17;15.73;;;14.03;;
13267;SDS011;6702;47.068;15.458;2022-12-29T11:53:24;22.57;;;20.37;;
13267;SDS011;6702;47.068;15.458;2022-12-29T11:56:35;21.03;;;18.40;;
13267;SDS011;6702;47.068;15.458;2022-12-29T11:59:43;16.20;;;14.47;;
13267;SDS011;6702;47.068;15.458;2022-12-29T12:02:51;16.83;;;14.73;;
13267;SDS011;6702;47.068;15.458;2022-12-29T12:06:00;15.50;;;13.90;;
13267;SDS011;6702;47.068;15.458;2022-12-29T12:09:08;15.30;;;13.03;;
13267;SDS011;6702;47.068;15.458;2022-12-29T12:12:19;14.90;;;12.47;;
13267;SDS011;6702;47.068;15.458;2022-12-29T12:15:28;14.43;;;12.53;;
13267;SDS011;6702;47.068;15.458;2022-12-29T12:18:46;12.63;;;11.40;;
13267;SDS011;6702;47.068;15.458;2022-12-29T12:21:52;12.23;;;11.13;;
13267;SDS011;6702;47.068;15.458;2022-12-29T12:25:03;11.37;;;10.30;;
13267;SDS011;6702;47.068;15.458;2022-12-29T12:28:15;13.93;;;11.70;;
13267;SDS011;6702;47.068;15.458;2022-12-29T12:31:26;11.70;;;10.57;;
13267;SDS011;6702;47.068;15.458;2022-12-29T12:34:41;10.03;;;9.07;;
13267;SDS011;6702;47.068;15.458;2022-12-29T12:37:48;9.90;;;8.93;;
13267;SDS011;6702;47.068;15.458;2022-12-29T12:41:08;12.27;;;10.97;;
13267;SDS011;6702;47.068;15.458;2022-12-29T12:44:24;9.93;;;8.13;;
13267;SDS011;6702;47.068;15.458;2022-12-29T12:47:38;9.25;;;7.70;;
13267;SDS011;6702;47.068;15.458;2022-12-29T12:50:54;8.40;;;7.70;;
13267;SDS011;6702;47.068;15.458;2022-12-29T12:54:11;8.73;;;6.78;;
13267;SDS011;6702;47.068;15.458;2022-12-29T12:57:31;7.25;;;6.28;;
13267;SDS011;6702;47.068;15.458;2022-12-29T13:00:49;5.82;;;5.32;;
13267;SDS011;6702;47.068;15.458;2022-12-29T13:04:19;6.38;;;5.78;;
13267;SDS011;6702;47.068;15.458;2022-12-29T13:07:41;8.88;;;7.00;;
13267;SDS011;6702;47.068;15.458;2022-12-29T13:10:53;7.37;;;5.30;;
13267;SDS011;6702;47.068;15.458;2022-12-29T13:14:06;5.37;;;4.87;;
13267;SDS011;6702;47.068;15.458;2022-12-29T13:17:24;6.07;;;5.47;;
13267;SDS011;6702;47.068;15.458;2022-12-29T13:20:34;5.90;;;5.40;;
13267;SDS011;6702;47.068;15.458;2022-12-29T13:23:43;5.67;;;5.17;;
13267;SDS011;6702;47.068;15.458;2022-12-29T13:26:53;8.80;;;5.10;;
13267;SDS011;6702;47.068;15.458;2022-12-29T13:30:04;6.00;;;5.37;;
13267;SDS011;6702;47.068;15.458;2022-12-29T13:33:15;7.77;;;5.60;;
13267;SDS011;6702;47.068;15.458;2022-12-29T13:36:25;8.13;;;6.40;;
13267;SDS011;6702;47.068;15.458;2022-12-29T13:39:33;7.20;;;5.80;;
13267;SDS011;6702;47.068;15.458;2022-12-29T13:42:39;7.90;;;5.93;;
13267;SDS011;6702;47.068;15.458;2022-12-29T13:45:46;8.10;;;5.60;;
13267;SDS011;6702;47.068;15.458;2022-12-29T13:48:58;6.10;;;5.50;;
13267;SDS011;6702;47.068;15.458;2022-12-29T13:52:07;6.63;;;5.63;;
13267;SDS011;6702;47.068;15.458;2022-12-29T13:55:21;7.53;;;6.63;;
13267;SDS011;6702;47.068;15.458;2022-12-29T13:58:30;7.57;;;6.40;;
13267;SDS011;6702;47.068;15.458;2022-12-29T14:01:39;7.30;;;6.07;;
13267;SDS011;6702;47.068;15.458;2022-12-29T14:04:55;6.20;;;5.70;;
13267;SDS011;6702;47.068;15.458;2022-12-29T14:08:01;6.37;;;5.30;;
13267;SDS011;6702;47.068;15.458;2022-12-29T14:11:07;9.40;;;7.30;;
13267;SDS011;6702;47.068;15.458;2022-12-29T14:14:13;7.50;;;6.30;;
13267;SDS011;6702;47.068;15.458;2022-12-29T14:17:23;7.43;;;6.27;;
13267;SDS011;6702;47.068;15.458;2022-12-29T14:20:26;10.73;;;6.13;;
13267;SDS011;6702;47.068;15.458;2022-12-29T14:23:37;6.93;;;6.07;;
13267;SDS011;6702;47.068;15.458;2022-12-29T14:26:42;7.07;;;6.37;;
13267;SDS011;6702;47.068;15.458;2022-12-29T14:29:45;9.17;;;7.27;;
13267;SDS011;6702;47.068;15.458;2022-12-29T14:36:18;7.33;;;6.30;;
13267;SDS011;6702;47.068;15.458;2022-12-29T14:39:30;9.97;;;5.50;;
13267;SDS011;6702;47.068;15.458;2022-12-29T14:42:36;7.33;;;6.00;;
13267;SDS011;6702;47.068;15.458;2022-12-29T14:45:43;9.37;;;7.20;;
13267;SDS011;6702;47.068;15.458;2022-12-29T14:48:57;9.20;;;7.20;;
13267;SDS011;6702;47.068;15.458;2022-12-29T14:52:06;10.40;;;6.70;;
13267;SDS011;6702;47.068;15.458;2022-12-29T14:55:29;10.00;;;7.90;;
13267;SDS011;6702;47.068;15.458;2022-12-29T14:58:41;9.10;;;7.30;;
13267;SDS011;6702;47.068;15.458;2022-12-29T15:01:50;9.43;;;6.97;;
13267;SDS011;6702;47.068;15.458;2022-12-29T15:04:59;11.67;;;7.70;;
13267;SDS011;6702;47.068;15.458;2022-12-29T15:08:04;10.70;;;7.60;;
13267;SDS011;6702;47.068;15.458;2022-12-29T15:11:09;10.83;;;7.30;;
13267;SDS011;6702;47.068;15.458;2022-12-29T15:14:30;10.57;;;7.33;;
13267;SDS011;6702;47.068;15.458;2022-12-29T15:17:35;14.20;;;9.60;;
13267;SDS011;6702;47.068;15.458;2022-12-29T15:20:41;14.50;;;8.87;;
13267;SDS011;6702;47.068;15.458;2022-12-29T15:23:45;14.87;;;8.63;;
13267;SDS011;6702;47.068;15.458;2022-12-29T15:26:50;9.90;;;7.97;;
13267;SDS011;6702;47.068;15.458;2022-12-29T15:29:56;10.70;;;7.83;;
13267;SDS011;6702;47.068;15.458;2022-12-29T15:33:08;10.50;;;5.83;;
13267;SDS011;6702;47.068;15.458;2022-12-29T15:36:22;10.43;;;7.03;;
13267;SDS011;6702;47.068;15.458;2022-12-29T15:39:29;13.60;;;6.03;;
13267;SDS011;6702;47.068;15.458;2022-12-29T15:46:04;11.43;;;5.90;;
13267;SDS011;6702;47.068;15.458;2022-12-29T15:49:08;8.83;;;5.90;;
13267;SDS011;6702;47.068;15.458;2022-12-29T15:52:18;9.17;;;6.80;;
13267;SDS011;6702;47.068;15.458;2022-12-29T15:55:24;10.40;;;6.33;;
13267;SDS011;6702;47.068;15.458;2022-12-29T15:58:38;9.13;;;7.77;;
13267;SDS011;6702;47.068;15.458;2022-12-29T16:01:45;16.80;;;11.73;;
13267;SDS011;6702;47.068;15.458;2022-12-29T16:04:49;14.00;;;12.37;;
13267;SDS011;6702;47.068;15.458;2022-12-29T16:08:27;21.97;;;13.20;;
13267;SDS011;6702;47.068;15.458;2022-12-29T16:11:34;13.10;;;10.60;;
13267;SDS011;6702;47.068;15.458;2022-12-29T16:14:40;12.10;;;10.13;;
13267;SDS011;6702;47.068;15.458;2022-12-29T16:17:46;12.03;;;9.67;;
13267;SDS011;6702;47.068;15.458;2022-12-29T16:20:51;14.07;;;9.30;;
13267;SDS011;6702;47.068;15.458;2022-12-29T16:23:59;14.93;;;10.27;;
13267;SDS011;6702;47.068;15.458;2022-12-29T16:27:06;14.83;;;9.53;;
13267;SDS011;6702;47.068;15.458;2022-12-29T16:30:16;12.43;;;11.13;;
13267;SDS011;6702;47.068;15.458;2022-12-29T16:33:30;15.27;;;11.57;;
13267;SDS011;6702;47.068;15.458;2022-12-29T16:36:41;15.47;;;10.83;;
13267;SDS011;6702;47.068;15.458;2022-12-29T16:39:57;20.70;;;12.00;;
13267;SDS011;6702;47.068;15.458;2022-12-29T16:43:38;13.60;;;11.10;;
13267;SDS011;6702;47.068;15.458;2022-12-29T16:46:44;18.53;;;14.97;;
13267;SDS011;6702;47.068;15.458;2022-12-29T16:50:12;17.33;;;15.50;;
13267;SDS011;6702;47.068;15.458;2022-12-29T16:53:29;11.50;;;9.70;;
13267;SDS011;6702;47.068;15.458;2022-12-29T16:56:37;13.33;;;9.33;;
13267;SDS011;6702;47.068;15.458;2022-12-29T16:59:46;9.47;;;8.03;;
13267;SDS011;6702;47.068;15.458;2022-12-29T17:02:55;11.47;;;7.30;;
13267;SDS011;6702;47.068;15.458;2022-12-29T17:06:00;8.23;;;7.40;;
13267;SDS011;6702;47.068;15.458;2022-12-29T17:09:15;11.10;;;8.43;;
13267;SDS011;6702;47.068;15.458;2022-12-29T17:12:22;8.77;;;7.87;;
13267;SDS011;6702;47.068;15.458;2022-12-29T17:15:27;11.13;;;9.60;;
13267;SDS011;6702;47.068;15.458;2022-12-29T17:18:33;13.47;;;9.63;;
13267;SDS011;6702;47.068;15.458;2022-12-29T17:21:37;13.07;;;9.60;;
13267;SDS011;6702;47.068;15.458;2022-12-29T17:24:41;11.37;;;7.60;;
13267;SDS011;6702;47.068;15.458;2022-12-29T17:27:46;12.53;;;8.73;;
13267;SDS011;6702;47.068;15.458;2022-12-29T17:30:52;12.53;;;9.77;;
13267;SDS011;6702;47.068;15.458;2022-12-29T17:33:57;13.33;;;9.87;;
13267;SDS011;6702;47.068;15.458;2022-12-29T17:37:01;12.03;;;10.00;;
13267;SDS011;6702;47.068;15.458;2022-12-29T17:40:05;13.00;;;10.10;;
13267;SDS011;6702;47.068;15.458;2022-12-29T17:43:13;14.13;;;11.40;;
13267;SDS011;6702;47.068;15.458;2022-12-29T17:46:18;17.60;;;12.70;;
13267;SDS011;6702;47.068;15.458;2022-12-29T17:49:21;19.77;;;13.33;;
13267;SDS011;6702;47.068;15.458;2022-12-29T17:52:25;19.03;;;13.40;;
13267;SDS011;6702;47.068;15.458;2022-12-29T17:55:28;32.27;;;27.13;;
13267;SDS011;6702;47.068;15.458;2022-12-29T17:58:39;19.17;;;16.27;;
13267;SDS011;6702;47.068;15.458;2022-12-29T18:01:44;28.53;;;21.30;;
13267;SDS011;6702;47.068;15.458;2022-12-29T18:04:49;44.10;;;30.47;;
13267;SDS011;6702;47.068;15.458;2022-12-29T18:07:53;40.53;;;27.63;;
13267;SDS011;6702;47.068;15.458;2022-12-29T18:10:57;106.17;;;59.83;;
13267;SDS011;6702;47.068;15.458;2022-12-29T18:14:02;62.53;;;37.73;;
13267;SDS011;6702;47.068;15.458;2022-12-29T18:17:08;29.70;;;20.60;;
13267;SDS011;6702;47.068;15.458;2022-12-29T18:20:14;39.23;;;21.90;;
13267;SDS011;6702;47.068;15.458;2022-12-29T18:23:18;44.60;;;24.40;;
13267;SDS011;6702;47.068;15.458;2022-12-29T18:26:24;153.10;;;61.17;;
13267;SDS011;6702;47.068;15.458;2022-12-29T18:29:30;106.07;;;44.20;;
13267;SDS011;6702;47.068;15.458;2022-12-29T18:32:35;56.03;;;27.83;;
13267;SDS011;6702;47.068;15.458;2022-12-29T18:35:39;153.73;;;64.20;;
13267;SDS011;6702;47.068;15.458;2022-12-29T18:38:45;50.07;;;33.97;;
13267;SDS011;6702;47.068;15.458;2022-12-29T18:41:49;56.67;;;41.07;;
13267;SDS011;6702;47.068;15.458;2022-12-29T18:44:53;26.70;;;21.17;;